createdAt,value
2017-09-18T00:02:24.729Z,97834.59
2017-09-18T00:04:53.810Z,97839.25
2017-09-18T00:07:22.126Z,97840.90
2017-09-18T00:09:51.230Z,97840.03
2017-09-18T00:12:20.338Z,97836.70
2017-09-18T00:14:48.648Z,97839.63
2017-09-18T00:17:16.954Z,97834.56
2017-09-18T00:19:45.302Z,97837.53
2017-09-18T00:22:13.615Z,97839.23
2017-09-18T00:24:41.933Z,97828.62
2017-09-18T00:27:10.273Z,97828.20
2017-09-18T00:29:38.586Z,97835.42
2017-09-18T00:32:06.895Z,97833.30
2017-09-18T00:34:35.232Z,97838.41
2017-09-18T00:37:04.325Z,97837.14
2017-09-18T00:39:33.402Z,97832.91
2017-09-18T00:42:01.743Z,97830.37
2017-09-18T00:44:30.050Z,97829.06
2017-09-18T00:46:58.378Z,97835.48
2017-09-18T00:49:26.681Z,97831.23
2017-09-18T00:51:55.018Z,97827.38
2017-09-18T00:54:24.093Z,97835.01
2017-09-18T00:56:52.406Z,97840.05
2017-09-18T00:59:21.505Z,97837.55
2017-09-18T01:01:50.587Z,97838.80
2017-09-18T01:04:19.666Z,97841.30
2017-09-18T01:06:48.006Z,97836.19
2017-09-18T01:09:16.312Z,97838.27
2017-09-18T01:11:44.665Z,97830.68
2017-09-18T01:14:12.974Z,97835.40
2017-09-18T01:16:41.396Z,97831.57
2017-09-18T01:19:10.474Z,97823.44
2017-09-18T01:21:38.814Z,97827.66
2017-09-18T01:24:07.130Z,97830.70
2017-09-18T01:26:35.442Z,97833.24
2017-09-18T01:29:03.775Z,97831.16
2017-09-18T01:31:32.102Z,97834.58
2017-09-18T01:34:00.414Z,97838.81
2017-09-18T01:36:28.747Z,97829.89
2017-09-18T01:38:57.825Z,97838.77
2017-09-18T01:41:26.143Z,97836.64
2017-09-18T01:43:54.522Z,97835.70
2017-09-18T01:46:22.827Z,97833.20
2017-09-18T01:48:51.134Z,97833.63
2017-09-18T01:51:19.476Z,97837.91
2017-09-18T01:53:47.780Z,97843.45
2017-09-18T01:56:16.093Z,97842.64
2017-09-18T01:58:45.202Z,97836.25
2017-09-18T02:01:14.273Z,97837.02
2017-09-18T02:03:42.583Z,97837.95
2017-09-18T02:06:11.684Z,97833.70
2017-09-18T02:08:39.998Z,97832.36
2017-09-18T02:11:08.308Z,97837.33
2017-09-18T02:13:36.657Z,97837.70
2017-09-18T02:16:04.970Z,97836.97
2017-09-18T02:18:33.278Z,97837.79
2017-09-18T02:21:02.383Z,97835.27
2017-09-18T02:23:30.710Z,97831.48
2017-09-18T02:25:59.790Z,97832.72
2017-09-18T02:28:28.134Z,97830.64
2017-09-18T02:30:57.211Z,97835.27
2017-09-18T02:33:26.291Z,97835.28
2017-09-18T02:35:54.633Z,97833.58
2017-09-18T02:38:22.958Z,97838.16
2017-09-18T02:40:51.271Z,97836.81
2017-09-18T02:43:19.611Z,97835.94
2017-09-18T02:45:47.928Z,97838.14
2017-09-18T02:48:17.011Z,97834.77
2017-09-18T02:50:46.125Z,97837.37
2017-09-18T02:53:14.434Z,97841.55
2017-09-18T02:55:42.739Z,97846.50
2017-09-18T02:58:11.074Z,97844.03
2017-09-18T03:00:39.472Z,97847.91
2017-09-18T03:03:07.782Z,97845.39
2017-09-18T03:05:36.126Z,97843.59
2017-09-18T03:08:04.438Z,97846.95
2017-09-18T03:10:32.753Z,97846.48
2017-09-18T03:13:01.855Z,97846.80
2017-09-18T03:15:30.930Z,97855.20
2017-09-18T03:17:59.242Z,97854.30
2017-09-18T03:20:27.577Z,97844.81
2017-09-18T03:22:55.887Z,97845.04
2017-09-18T03:25:24.965Z,97853.61
2017-09-18T03:27:53.290Z,97853.53
2017-09-18T03:30:21.599Z,97863.31
2017-09-18T03:32:49.906Z,97857.47
2017-09-18T03:35:19.052Z,97859.78
2017-09-18T03:37:47.357Z,97863.31
2017-09-18T03:40:15.661Z,97862.97
2017-09-18T03:42:44.000Z,97858.70
2017-09-18T03:45:12.312Z,97859.15
2017-09-18T03:47:40.622Z,97859.49
2017-09-18T03:50:09.721Z,97856.02
2017-09-18T03:52:38.794Z,97863.31
2017-09-18T03:55:07.114Z,97862.20
2017-09-18T03:57:35.450Z,97864.78
2017-09-18T04:00:03.758Z,97862.97
2017-09-18T04:02:32.842Z,97868.41
2017-09-18T04:05:01.947Z,97859.17
2017-09-18T04:07:31.020Z,97872.22
2017-09-18T04:09:59.423Z,97870.18
2017-09-18T04:12:28.530Z,97869.65
2017-09-18T04:14:57.602Z,97871.23
2017-09-18T04:17:26.688Z,97865.32
2017-09-18T04:19:55.028Z,97864.59
2017-09-18T04:22:23.335Z,97868.83
2017-09-18T04:24:51.646Z,97869.28
2017-09-18T04:27:20.743Z,97866.96
2017-09-18T04:29:49.822Z,97862.30
2017-09-18T04:32:18.130Z,97863.70
2017-09-18T04:34:47.232Z,97864.95
2017-09-18T04:37:16.305Z,97869.63
2017-09-18T04:39:44.626Z,97866.34
2017-09-18T04:42:12.958Z,97863.71
2017-09-18T04:44:41.267Z,97868.20
2017-09-18T04:47:10.347Z,97867.41
2017-09-18T04:49:39.455Z,97868.29
2017-09-18T04:52:08.530Z,97864.11
2017-09-18T04:54:36.839Z,97868.41
2017-09-18T04:57:05.939Z,97869.63
2017-09-18T04:59:34.250Z,97865.72
2017-09-18T05:02:02.558Z,97865.20
2017-09-18T05:04:30.898Z,97867.55
2017-09-18T05:06:59.971Z,97866.02
2017-09-18T05:09:29.045Z,97868.11
2017-09-18T05:11:57.378Z,97871.33
2017-09-18T05:14:25.686Z,97875.61
2017-09-18T05:16:53.998Z,97871.50
2017-09-18T05:19:23.098Z,97877.37
2017-09-18T05:21:52.174Z,97889.14
2017-09-18T05:24:20.493Z,97888.25
2017-09-18T05:26:48.872Z,97898.18
2017-09-18T05:29:17.189Z,97898.18
2017-09-18T05:31:45.552Z,97898.80
2017-09-18T05:34:13.884Z,97897.17
2017-09-18T05:36:42.186Z,97899.77
2017-09-18T05:39:10.490Z,97911.71
2017-09-18T05:41:38.828Z,97917.23
2017-09-18T05:44:07.903Z,97912.64
2017-09-18T05:46:36.212Z,97919.06
2017-09-18T05:49:05.317Z,97912.35
2017-09-18T05:51:34.394Z,97918.16
2017-09-18T05:54:02.702Z,97924.16
2017-09-18T05:56:31.034Z,97916.67
2017-09-18T05:58:59.347Z,97912.87
2017-09-18T06:01:28.417Z,97918.87
2017-09-18T06:03:56.761Z,97908.73
2017-09-18T06:06:25.066Z,97914.25
2017-09-18T06:08:53.380Z,97902.83
2017-09-18T06:11:22.482Z,97914.27
2017-09-18T06:13:51.563Z,97919.09
2017-09-18T06:16:19.878Z,97917.77
2017-09-18T06:18:48.213Z,97920.31
2017-09-18T06:21:20.687Z,97922.02
2017-09-18T06:23:49.050Z,97922.86
2017-09-18T06:26:17.394Z,97932.41
2017-09-18T06:28:45.710Z,97930.69
2017-09-18T06:31:14.014Z,97926.17
2017-09-18T06:33:42.366Z,97931.83
2017-09-18T06:36:10.712Z,97934.03
2017-09-18T06:38:39.021Z,97937.88
2017-09-18T06:41:07.359Z,97936.55
2017-09-18T06:43:36.463Z,97932.25
2017-09-18T06:46:04.769Z,97934.13
2017-09-18T06:48:33.111Z,97936.75
2017-09-18T06:51:02.181Z,97937.25
2017-09-18T06:53:30.490Z,97938.95
2017-09-18T06:55:59.586Z,97940.39
2017-09-18T06:58:28.692Z,97937.02
2017-09-18T07:00:57.766Z,97944.27
2017-09-18T07:03:26.878Z,97933.27
2017-09-18T07:05:55.950Z,97935.43
2017-09-18T07:08:24.263Z,97938.00
2017-09-18T07:10:52.602Z,97933.82
2017-09-18T07:13:20.912Z,97939.36
2017-09-18T07:15:50.014Z,97934.17
2017-09-18T07:18:19.114Z,97934.94
2017-09-18T07:20:48.186Z,97936.22
2017-09-18T07:23:16.519Z,97938.25
2017-09-18T07:25:44.826Z,97939.89
2017-09-18T07:28:13.161Z,97942.93
2017-09-18T07:30:41.495Z,97944.58
2017-09-18T07:33:09.806Z,97947.09
2017-09-18T07:35:38.914Z,97954.32
2017-09-18T07:38:07.225Z,97958.27
2017-09-18T07:40:35.569Z,97957.36
2017-09-18T07:43:04.646Z,97954.30
2017-09-18T07:45:33.735Z,97955.97
2017-09-18T07:48:02.081Z,97952.22
2017-09-18T07:50:30.394Z,97963.38
2017-09-18T07:52:58.710Z,97965.94
2017-09-18T07:55:27.338Z,97968.84
2017-09-18T07:57:55.654Z,97969.70
2017-09-18T08:00:24.738Z,97964.98
2017-09-18T08:02:53.074Z,97964.27
2017-09-18T08:05:21.385Z,97967.22
2017-09-18T08:07:49.699Z,97964.11
2017-09-18T08:10:18.806Z,97967.53
2017-09-18T08:12:47.128Z,97967.91
2017-09-18T08:15:15.470Z,97970.90
2017-09-18T08:17:43.790Z,97973.87
2017-09-18T08:20:12.134Z,97978.24
2017-09-18T08:22:40.450Z,97981.23
2017-09-18T08:25:08.768Z,97987.23
2017-09-18T08:27:37.866Z,97985.50
2017-09-18T08:30:06.954Z,97991.45
2017-09-18T08:32:36.034Z,97991.06
2017-09-18T08:35:04.479Z,97991.45
2017-09-18T08:37:32.783Z,97992.84
2017-09-18T08:40:01.122Z,97988.02
2017-09-18T08:42:29.444Z,97991.44
2017-09-18T08:44:57.766Z,97992.28
2017-09-18T08:47:26.875Z,97987.61
2017-09-18T08:49:55.195Z,97978.59
2017-09-18T08:52:23.538Z,97988.33
2017-09-18T08:54:51.858Z,97981.05
2017-09-18T08:57:20.198Z,97977.55
2017-09-18T08:59:48.549Z,97976.23
2017-09-18T09:02:17.634Z,97975.77
2017-09-18T09:04:45.952Z,97975.54
2017-09-18T09:07:14.291Z,97977.36
2017-09-18T09:09:42.610Z,97977.92
2017-09-18T09:12:10.951Z,97973.80
2017-09-18T09:14:39.261Z,97966.88
2017-09-18T09:17:08.338Z,97971.88
2017-09-18T09:19:36.686Z,97971.31
2017-09-18T09:22:05.047Z,97969.20
2017-09-18T09:24:33.389Z,97968.91
2017-09-18T09:27:02.525Z,97971.06
2017-09-18T09:29:30.842Z,97976.80
2017-09-18T09:31:59.187Z,97977.56
2017-09-18T09:34:27.503Z,97985.52
2017-09-18T09:36:55.822Z,97984.55
2017-09-18T09:39:24.166Z,97990.09
2017-09-18T09:41:52.480Z,97985.91
2017-09-18T09:44:20.825Z,97992.20
2017-09-18T09:46:49.142Z,97989.30
2017-09-18T09:49:17.490Z,97988.21
2017-09-18T09:51:45.802Z,97987.20
2017-09-18T09:54:14.126Z,97988.61
2017-09-18T09:56:42.471Z,97995.73
2017-09-18T09:59:10.789Z,97988.29
2017-09-18T10:01:39.116Z,97985.77
2017-09-18T10:04:08.218Z,97980.98
2017-09-18T10:06:36.534Z,97987.13
2017-09-18T10:09:04.874Z,97982.97
2017-09-18T10:11:33.959Z,97991.52
2017-09-18T10:14:03.070Z,97980.91
2017-09-18T10:16:32.154Z,97986.75
2017-09-18T10:19:01.254Z,97988.20
2017-09-18T10:21:30.361Z,97984.05
2017-09-18T10:23:59.448Z,97981.14
2017-09-18T10:26:28.530Z,97982.86
2017-09-18T10:28:56.879Z,97981.39
2017-09-18T10:31:25.191Z,97985.97
2017-09-18T10:36:21.142Z,97986.85
2017-09-18T10:38:50.222Z,97983.36
2017-09-18T10:41:18.537Z,97984.16
2017-09-18T10:43:46.882Z,97988.28
2017-09-18T10:46:15.194Z,97986.67
2017-09-18T10:48:44.278Z,97982.42
2017-09-18T10:51:13.387Z,97980.78
2017-09-18T10:53:42.474Z,97982.62
2017-09-18T10:56:11.558Z,97980.10
2017-09-18T10:58:39.993Z,97972.67
2017-09-18T11:01:08.311Z,97978.50
2017-09-18T11:03:36.626Z,97974.00
2017-09-18T11:06:05.740Z,97966.09
2017-09-18T11:08:34.064Z,97964.92
2017-09-18T11:11:02.379Z,97956.70
2017-09-18T11:13:31.490Z,97958.58
2017-09-18T11:15:59.814Z,97957.73
2017-09-18T11:18:28.130Z,97948.67
2017-09-18T11:20:57.234Z,97950.48
2017-09-18T11:23:26.315Z,97951.98
2017-09-18T11:25:55.398Z,97955.59
2017-09-18T11:28:23.742Z,97958.34
2017-09-18T11:30:52.058Z,97956.03
2017-09-18T11:33:20.370Z,97958.09
2017-09-18T11:35:49.482Z,97953.59
2017-09-18T11:38:17.795Z,97952.30
2017-09-18T11:40:46.110Z,97945.39
2017-09-18T11:43:15.219Z,97949.03
2017-09-18T11:45:44.298Z,97947.31
2017-09-18T11:48:12.622Z,97946.20
2017-09-18T11:50:40.962Z,97953.98
2017-09-18T11:53:10.046Z,97947.81
2017-09-18T11:55:38.358Z,97946.64
2017-09-18T11:58:07.482Z,97936.20
2017-09-18T12:00:35.799Z,97938.19
2017-09-18T12:03:04.119Z,97936.84
2017-09-18T12:05:32.462Z,97935.90
2017-09-18T12:08:00.782Z,97938.10
2017-09-18T12:10:29.098Z,97931.61
2017-09-18T12:12:57.442Z,97925.89
2017-09-18T12:15:25.774Z,97926.58
2017-09-18T12:17:54.097Z,97919.49
2017-09-18T12:20:23.203Z,97919.11
2017-09-18T12:22:51.519Z,97927.09
2017-09-18T12:25:19.838Z,97918.81
2017-09-18T12:27:48.945Z,97914.61
2017-09-18T12:30:18.031Z,97916.20
2017-09-18T12:32:47.172Z,97919.84
2017-09-18T12:35:15.511Z,97933.47
2017-09-18T12:37:44.591Z,97937.69
2017-09-18T12:40:12.907Z,97946.67
2017-09-18T12:42:41.246Z,97949.34
2017-09-18T12:45:09.559Z,97940.05
2017-09-18T12:47:38.680Z,97932.41
2017-09-18T12:50:06.997Z,97920.14
2017-09-18T12:52:35.318Z,97924.25
2017-09-18T12:55:04.418Z,97918.92
2017-09-18T12:57:33.531Z,97922.00
2017-09-18T13:00:01.843Z,97910.39
2017-09-18T13:02:30.191Z,97915.45
2017-09-18T13:04:58.502Z,97913.61
2017-09-18T13:07:26.814Z,97914.86
2017-09-18T13:09:55.162Z,97917.34
2017-09-18T13:12:23.475Z,97917.15
2017-09-18T13:14:51.800Z,97916.28
2017-09-18T13:17:20.142Z,97913.92
2017-09-18T13:19:49.218Z,97918.48
2017-09-18T13:22:17.540Z,97915.58
2017-09-18T13:24:45.887Z,97904.56
2017-09-18T13:27:14.207Z,97905.25
2017-09-18T13:29:42.520Z,97900.67
2017-09-18T13:32:10.861Z,97896.89
2017-09-18T13:34:39.174Z,97885.77
2017-09-18T13:37:07.502Z,97889.80
2017-09-18T13:39:36.610Z,97888.09
2017-09-18T13:42:04.927Z,97886.29
2017-09-18T13:44:33.238Z,97891.19
2017-09-18T13:47:01.583Z,97882.09
2017-09-18T13:49:29.900Z,97878.23
2017-09-18T13:51:58.224Z,97876.83
2017-09-18T13:54:26.563Z,97878.56
2017-09-18T13:56:54.888Z,97876.66
2017-09-18T13:59:23.202Z,97874.30
2017-09-18T14:01:51.543Z,97875.04
2017-09-18T14:04:19.854Z,97870.75
2017-09-18T14:06:48.196Z,97871.02
2017-09-18T14:09:16.519Z,97866.22
2017-09-18T14:11:44.861Z,97865.81
2017-09-18T14:14:13.174Z,97860.39
2017-09-18T14:16:41.498Z,97866.94
2017-09-18T14:19:10.728Z,97866.92
2017-09-18T14:21:39.041Z,97863.55
2017-09-18T14:24:07.415Z,97863.95
2017-09-18T14:26:35.767Z,97875.23
2017-09-18T14:29:04.088Z,97878.58
2017-09-18T14:31:32.410Z,97879.27
2017-09-18T14:34:00.764Z,97877.64
2017-09-18T14:36:29.849Z,97873.98
2017-09-18T14:38:58.162Z,97877.55
2017-09-18T14:41:26.506Z,97875.53
2017-09-18T14:43:54.818Z,97871.52
2017-09-18T14:46:23.894Z,97870.41
2017-09-18T14:48:53.007Z,97862.27
2017-09-18T14:51:22.096Z,97860.45
2017-09-18T14:53:51.174Z,97864.11
2017-09-18T14:56:19.530Z,97873.46
2017-09-18T14:58:47.846Z,97875.73
2017-09-18T15:01:16.936Z,97874.78
2017-09-18T15:03:45.275Z,97882.28
2017-09-18T15:06:13.593Z,97882.87
2017-09-18T15:08:41.934Z,97880.80
2017-09-18T15:11:10.279Z,97876.56
2017-09-18T15:13:39.361Z,97884.40
2017-09-18T15:16:07.707Z,97889.36
2017-09-18T15:18:36.787Z,97888.36
2017-09-18T15:21:05.102Z,97886.75
2017-09-18T15:23:33.446Z,97891.43
2017-09-18T15:26:01.758Z,97890.16
2017-09-18T15:28:30.071Z,97899.48
2017-09-18T15:30:59.179Z,97893.36
2017-09-18T15:33:27.490Z,97895.42
2017-09-18T15:35:55.807Z,97901.42
2017-09-18T15:38:24.150Z,97913.22
2017-09-18T15:40:52.462Z,97914.27
2017-09-18T15:43:20.779Z,97902.81
2017-09-18T15:45:49.122Z,97906.13
2017-09-18T15:48:17.434Z,97909.09
2017-09-18T15:50:45.760Z,97910.29
2017-09-18T15:53:14.183Z,97911.59
2017-09-18T15:55:43.263Z,97912.78
2017-09-18T15:58:11.603Z,97912.80
2017-09-18T16:00:40.723Z,97911.94
2017-09-18T16:03:09.802Z,97918.03
2017-09-18T16:05:38.118Z,97912.33
2017-09-18T16:08:06.462Z,97921.97
2017-09-18T16:10:34.775Z,97925.19
2017-09-18T16:13:03.114Z,97926.27
2017-09-18T16:15:31.430Z,97931.27
2017-09-18T16:17:59.750Z,97928.46
2017-09-18T16:20:28.094Z,97933.48
2017-09-18T16:22:56.407Z,97939.12
2017-09-18T16:25:24.724Z,97932.48
2017-09-18T16:27:53.062Z,97943.34
2017-09-18T16:30:21.377Z,97947.50
2017-09-18T16:32:49.702Z,97947.57
2017-09-18T16:35:18.810Z,97946.92
2017-09-18T16:37:47.930Z,97954.17
2017-09-18T16:40:16.257Z,97969.11
2017-09-18T16:42:44.607Z,97963.26
2017-09-18T16:45:12.933Z,97960.30
2017-09-18T16:47:41.254Z,97963.38
2017-09-18T16:50:09.600Z,97961.83
2017-09-18T16:52:38.690Z,97960.97
2017-09-18T16:55:07.012Z,97959.31
2017-09-18T16:57:35.362Z,97958.39
2017-09-18T17:00:04.446Z,97958.80
2017-09-18T17:02:32.771Z,97955.84
2017-09-18T17:05:01.112Z,97953.81
2017-09-18T17:07:30.198Z,97952.65
2017-09-18T17:09:58.520Z,97952.31
2017-09-18T17:12:26.863Z,97949.33
2017-09-18T17:14:57.285Z,97944.27
2017-09-18T17:17:25.594Z,97942.74
2017-09-18T17:19:53.939Z,97935.95
2017-09-18T17:22:22.263Z,97946.41
2017-09-18T17:24:50.587Z,97946.14
2017-09-18T17:27:18.936Z,97946.46
2017-09-18T17:29:47.251Z,97942.10
2017-09-18T17:32:15.574Z,97950.27
2017-09-18T17:34:44.686Z,97952.88
2017-09-18T17:37:14.018Z,97957.72
2017-09-18T17:39:42.418Z,97959.99
2017-09-18T17:42:10.762Z,97965.11
2017-09-18T17:44:39.743Z,97955.77
2017-09-18T17:47:09.156Z,97962.62
2017-09-18T17:49:38.334Z,97973.82
2017-09-18T17:52:07.414Z,97967.89
2017-09-18T17:54:36.499Z,97971.81
2017-09-18T17:57:04.844Z,97979.16
2017-09-18T17:59:33.385Z,97971.98
2017-09-18T18:02:05.341Z,97984.75
2017-09-18T18:04:35.999Z,97972.38
2017-09-18T18:07:06.500Z,97974.60
2017-09-18T18:09:38.870Z,97972.58
2017-09-18T18:12:10.712Z,97978.77
2017-09-18T18:14:44.183Z,97976.84
2017-09-18T18:17:14.119Z,97987.17
2017-09-18T18:19:44.076Z,97985.80
2017-09-18T18:22:14.482Z,97986.95
2017-09-18T18:24:45.510Z,97990.08
2017-09-18T18:27:14.247Z,97989.13
2017-09-18T18:29:45.213Z,97994.25
2017-09-18T18:32:15.759Z,97996.82
2017-09-18T18:34:47.137Z,97996.04
2017-09-18T18:37:18.999Z,98002.14
2017-09-18T18:39:50.432Z,98006.03
2017-09-18T18:42:21.522Z,98000.51
2017-09-18T18:44:53.449Z,98006.59
2017-09-18T18:47:23.910Z,98011.09
2017-09-18T18:49:54.647Z,98006.20
2017-09-18T18:52:26.649Z,98014.34
2017-09-18T18:54:58.496Z,98016.12
2017-09-18T18:57:31.845Z,98017.78
2017-09-18T19:00:06.761Z,98015.68
2017-09-18T19:02:40.182Z,98025.44
2017-09-18T19:05:12.278Z,98019.94
2017-09-18T19:07:45.571Z,98027.09
2017-09-18T19:10:19.188Z,98030.17
2017-09-18T19:12:52.605Z,98030.66
2017-09-18T19:15:24.200Z,98034.13
2017-09-18T19:17:54.089Z,98035.81
2017-09-18T19:20:27.216Z,98032.39
2017-09-18T19:22:58.876Z,98034.97
2017-09-18T19:25:28.951Z,98031.11
2017-09-18T19:28:00.116Z,98022.95
2017-09-18T19:30:29.532Z,98029.05
2017-09-18T19:32:59.085Z,98027.90
2017-09-18T19:35:29.484Z,98032.48
2017-09-18T19:37:59.241Z,98034.63
2017-09-18T19:40:30.924Z,98029.58
2017-09-18T19:43:01.225Z,98023.99
2017-09-18T19:45:33.188Z,98021.98
2017-09-18T19:48:05.036Z,98032.22
2017-09-18T19:50:36.546Z,98057.94
2017-09-18T19:53:08.772Z,98055.16
2017-09-18T19:55:42.011Z,98042.25
2017-09-18T19:58:13.982Z,98046.05
2017-09-18T20:00:46.341Z,98047.20
2017-09-18T20:03:18.085Z,98038.60
2017-09-18T20:05:51.525Z,98035.48
2017-09-18T20:08:24.712Z,98044.44
2017-09-18T20:10:59.674Z,98043.96
2017-09-18T20:13:30.662Z,98039.61
2017-09-18T20:16:00.963Z,98040.95
2017-09-18T20:18:34.702Z,98038.38
2017-09-18T20:21:06.485Z,98040.48
2017-09-18T20:23:38.965Z,98043.39
2017-09-18T20:26:10.397Z,98044.16
2017-09-18T20:28:40.449Z,98043.69
2017-09-18T20:31:13.433Z,98045.72
2017-09-18T20:33:45.383Z,98042.37
2017-09-18T20:36:16.908Z,98039.36
2017-09-18T20:38:49.882Z,98031.00
2017-09-18T20:41:23.116Z,98038.22
2017-09-18T20:43:55.336Z,98034.68
2017-09-18T20:46:29.287Z,98036.75
2017-09-18T20:49:02.970Z,98030.38
2017-09-18T20:51:37.081Z,98036.86
2017-09-18T20:54:11.410Z,98033.87
2017-09-18T20:56:43.382Z,98033.09
2017-09-18T20:59:15.895Z,98035.76
2017-09-18T21:01:49.425Z,98036.64
2017-09-18T21:04:22.152Z,98037.00
2017-09-18T21:06:52.527Z,98029.34
2017-09-18T21:09:24.447Z,98029.00
2017-09-18T21:11:54.235Z,98032.41
2017-09-18T21:14:24.186Z,98030.66
2017-09-18T21:16:56.090Z,98022.50
2017-09-18T21:19:27.759Z,98027.67
2017-09-18T21:22:00.317Z,98022.68
2017-09-18T21:24:29.238Z,98025.27
2017-09-18T21:27:01.927Z,98022.28
2017-09-18T21:29:34.721Z,98015.91
2017-09-18T21:32:06.459Z,98015.92
2017-09-18T21:34:39.084Z,98017.25
2017-09-18T21:37:10.506Z,98024.52
2017-09-18T21:39:43.778Z,98028.05
2017-09-18T21:42:15.306Z,98025.95
2017-09-18T21:44:46.280Z,98029.82
2017-09-18T21:47:18.773Z,98030.67
2017-09-18T21:49:51.048Z,98027.70
2017-09-18T21:52:23.351Z,98031.56
2017-09-18T21:54:51.701Z,98030.27
2017-09-18T21:57:20.787Z,98034.89
2017-09-18T21:59:49.881Z,98033.63
2017-09-18T22:02:18.996Z,98017.78
2017-09-18T22:04:48.088Z,98021.62
2017-09-18T22:07:17.216Z,98030.15
2017-09-18T22:09:45.591Z,98035.31
2017-09-18T22:12:14.010Z,98028.95
2017-09-18T22:14:42.363Z,98040.51
2017-09-18T22:17:10.737Z,98037.10
2017-09-18T22:19:39.146Z,98034.11
2017-09-18T22:22:07.491Z,98036.70
2017-09-18T22:24:35.835Z,98033.34
2017-09-18T22:27:04.201Z,98031.98
2017-09-18T22:29:32.530Z,98031.53
2017-09-18T22:32:00.925Z,98028.17
2017-09-18T22:34:29.244Z,98029.93
2017-09-18T22:36:57.585Z,98024.35
2017-09-18T22:39:25.931Z,98026.41
2017-09-18T22:41:55.021Z,98028.55
2017-09-18T22:44:24.114Z,98028.98
2017-09-18T22:46:53.230Z,98037.52
2017-09-18T22:49:21.559Z,98032.80
2017-09-18T22:51:49.882Z,98026.02
2017-09-18T22:54:18.995Z,98025.13
2017-09-18T22:56:47.316Z,98028.52
2017-09-18T22:59:15.635Z,98028.87
2017-09-18T23:01:44.764Z,98031.02
2017-09-18T23:04:13.087Z,98034.09
2017-09-18T23:06:42.657Z,98026.42
2017-09-18T23:09:11.002Z,98025.56
2017-09-18T23:11:40.095Z,98022.08
2017-09-18T23:14:09.202Z,98022.02
2017-09-18T23:16:38.296Z,98022.13
2017-09-18T23:19:07.410Z,98025.50
2017-09-18T23:21:35.735Z,98014.30
2017-09-18T23:24:04.822Z,98017.27
2017-09-18T23:26:33.170Z,98020.64
2017-09-18T23:29:01.494Z,98018.52
2017-09-18T23:31:29.819Z,98022.41
2017-09-18T23:33:58.169Z,98020.73
2017-09-18T23:36:26.491Z,98026.61
2017-09-18T23:38:54.815Z,98023.63
2017-09-18T23:41:23.166Z,98023.59
2017-09-18T23:43:51.509Z,98024.38
2017-09-18T23:46:20.622Z,98023.55
2017-09-18T23:48:48.943Z,98018.03
2017-09-18T23:51:17.270Z,98018.45
2017-09-18T23:53:46.378Z,98015.45
2017-09-18T23:56:14.705Z,98019.73
2017-09-18T23:58:44.287Z,98016.83
